createdAt,value
2022-11-22T00:01:02.166Z,96897.59
2022-11-22T00:03:30.428Z,96885.70
2022-11-22T00:05:58.492Z,96885.55
2022-11-22T00:08:26.457Z,96888.19
2022-11-22T00:10:54.590Z,96871.77
2022-11-22T00:13:22.661Z,96867.09
2022-11-22T00:16:01.836Z,96875.70
2022-11-22T00:18:30.989Z,96877.63
2022-11-22T00:21:06.224Z,96875.40
2022-11-22T00:23:35.066Z,96867.79
2022-11-22T00:26:03.052Z,96873.82
2022-11-22T00:28:31.114Z,96872.93
2022-11-22T00:30:59.159Z,96872.94
2022-11-22T00:33:27.076Z,96879.67
2022-11-22T00:35:55.013Z,96876.94
2022-11-22T00:38:23.139Z,96864.15
2022-11-22T00:40:51.169Z,96860.35
2022-11-22T00:43:19.251Z,96861.58
2022-11-22T00:45:47.128Z,96861.58
2022-11-22T00:48:15.272Z,96859.15
2022-11-22T00:50:43.187Z,96857.11
2022-11-22T00:53:11.273Z,96860.76
2022-11-22T00:55:39.358Z,96857.83
2022-11-22T00:58:07.354Z,96855.77
2022-11-22T01:00:35.272Z,96860.27
2022-11-22T01:03:03.356Z,96858.36
2022-11-22T01:05:31.319Z,96858.35
2022-11-22T01:07:59.280Z,96863.36
2022-11-22T01:10:27.253Z,96867.84
2022-11-22T01:12:58.028Z,96869.90
2022-11-22T01:15:26.128Z,96871.26
2022-11-22T01:17:54.082Z,96867.10
2022-11-22T01:20:23.215Z,96870.02
2022-11-22T01:22:51.218Z,96876.23
2022-11-22T01:25:19.227Z,96877.42
2022-11-22T01:27:47.967Z,96876.56
2022-11-22T01:30:16.095Z,96876.75
2022-11-22T01:32:45.162Z,96881.09
2022-11-22T01:35:13.330Z,96884.90
2022-11-22T01:37:41.408Z,96889.03
2022-11-22T01:40:11.224Z,96889.19
2022-11-22T01:42:52.590Z,96890.40
2022-11-22T01:45:29.590Z,96887.48
2022-11-22T01:48:12.428Z,96889.18
2022-11-22T01:50:44.305Z,96891.27
2022-11-22T01:53:23.205Z,96893.36
2022-11-22T01:55:52.986Z,96894.91
2022-11-22T01:58:24.862Z,96894.21
2022-11-22T02:00:54.539Z,96899.21
2022-11-22T02:03:24.041Z,96905.58
2022-11-22T02:05:52.838Z,96905.89
2022-11-22T02:08:39.704Z,96905.22
2022-11-22T02:11:09.687Z,96903.50
2022-11-22T02:13:42.889Z,96900.40
2022-11-22T02:16:12.486Z,96897.79
2022-11-22T02:18:40.737Z,96898.31
2022-11-22T02:21:09.675Z,96898.52
2022-11-22T02:24:05.160Z,96905.11
2022-11-22T02:26:33.256Z,96909.61
2022-11-22T02:29:06.008Z,96917.40
2022-11-22T02:31:43.958Z,96917.91
2022-11-22T02:34:13.944Z,96919.63
2022-11-22T02:36:47.283Z,96921.68
2022-11-22T02:39:20.503Z,96924.44
2022-11-22T02:41:50.051Z,96927.20
2022-11-22T02:44:19.784Z,96932.17
2022-11-22T02:46:54.118Z,96935.45
2022-11-22T02:49:24.815Z,96933.36
2022-11-22T02:51:53.174Z,96929.73
2022-11-22T02:54:21.630Z,96921.13
2022-11-22T02:56:49.764Z,96922.52
2022-11-22T02:59:17.812Z,96921.66
2022-11-22T03:01:47.950Z,96921.48
2022-11-22T03:04:25.132Z,96925.42
2022-11-22T03:06:56.000Z,96930.08
2022-11-22T03:09:25.774Z,96932.47
2022-11-22T03:11:55.091Z,96931.94
2022-11-22T03:14:23.632Z,96932.44
2022-11-22T03:16:51.913Z,96930.54
2022-11-22T03:19:20.206Z,96930.36
2022-11-22T03:21:50.119Z,96929.30
2022-11-22T03:24:20.459Z,96925.52
2022-11-22T03:26:50.169Z,96925.52
2022-11-22T03:29:19.152Z,96924.14
2022-11-22T03:31:47.808Z,96917.42
2022-11-22T03:34:16.639Z,96915.90
2022-11-22T03:36:44.884Z,96914.19
2022-11-22T03:39:12.834Z,96914.74
2022-11-22T03:41:41.072Z,96914.09
2022-11-22T03:44:09.724Z,96916.02
2022-11-22T03:46:37.680Z,96920.52
2022-11-22T03:49:05.782Z,96924.86
2022-11-22T03:51:33.890Z,96927.30
2022-11-22T03:54:02.054Z,96931.61
2022-11-22T03:56:30.064Z,96930.75
2022-11-22T03:58:58.087Z,96932.98
2022-11-22T04:01:26.200Z,96933.85
2022-11-22T04:03:54.174Z,96940.39
2022-11-22T04:06:22.250Z,96944.53
2022-11-22T04:08:50.298Z,96943.14
2022-11-22T04:11:18.544Z,96951.94
2022-11-22T04:14:05.100Z,96955.40
2022-11-22T04:16:33.270Z,96962.80
2022-11-22T04:19:01.308Z,96962.98
2022-11-22T04:21:35.282Z,96962.11
2022-11-22T04:24:27.787Z,96959.88
2022-11-22T04:26:57.256Z,96962.81
2022-11-22T04:29:25.626Z,96966.61
2022-11-22T04:32:12.316Z,96967.48
2022-11-22T04:34:40.413Z,96968.86
2022-11-22T04:37:08.488Z,96965.42
2022-11-22T04:39:36.832Z,96962.64
2022-11-22T04:42:23.586Z,96959.20
2022-11-22T04:44:51.741Z,96962.65
2022-11-22T04:47:39.065Z,96962.31
2022-11-22T04:50:29.166Z,96963.34
2022-11-22T04:52:57.913Z,96960.06
2022-11-22T04:55:26.570Z,96956.61
2022-11-22T04:57:59.253Z,96953.84
2022-11-22T05:00:29.580Z,96950.92
2022-11-22T05:02:58.478Z,96949.02
2022-11-22T05:05:27.026Z,96947.83
2022-11-22T05:07:55.346Z,96948.52
2022-11-22T05:10:26.874Z,96954.02
2022-11-22T05:12:56.555Z,96958.69
2022-11-22T05:15:24.732Z,96955.58
2022-11-22T05:17:52.857Z,96958.67
2022-11-22T05:20:20.882Z,96958.51
2022-11-22T05:23:07.364Z,96957.48
2022-11-22T05:25:35.615Z,96957.98
2022-11-22T05:28:03.739Z,96958.52
2022-11-22T05:30:31.713Z,96955.75
2022-11-22T05:32:59.778Z,96956.79
2022-11-22T05:35:27.886Z,96961.45
2022-11-22T05:37:57.695Z,96963.17
2022-11-22T05:40:26.759Z,96968.00
2022-11-22T05:42:54.928Z,96967.65
2022-11-22T05:45:23.193Z,96964.73
2022-11-22T05:47:51.165Z,96964.20
2022-11-22T05:50:19.271Z,96970.58
2022-11-22T05:53:01.377Z,96968.17
2022-11-22T05:55:30.877Z,96973.34
2022-11-22T05:58:02.761Z,96972.48
2022-11-22T06:00:31.304Z,96972.83
2022-11-22T06:03:04.186Z,96969.72
2022-11-22T06:05:33.132Z,96968.86
2022-11-22T06:08:03.259Z,96965.58
2022-11-22T06:10:34.406Z,96965.06
2022-11-22T06:13:02.835Z,96966.26
2022-11-22T06:15:30.847Z,96968.33
2022-11-22T06:17:58.784Z,96966.60
2022-11-22T06:20:27.325Z,96967.80
2022-11-22T06:22:58.502Z,96970.73
2022-11-22T06:25:27.311Z,96975.57
2022-11-22T06:28:00.010Z,96979.52
2022-11-22T06:30:28.475Z,96980.73
2022-11-22T06:32:57.569Z,96981.95
2022-11-22T06:35:25.794Z,96984.20
2022-11-22T06:37:59.265Z,96984.54
2022-11-22T06:40:28.851Z,96981.95
2022-11-22T06:42:57.398Z,96983.15
2022-11-22T06:45:25.669Z,96984.71
2022-11-22T06:47:54.274Z,96990.05
2022-11-22T06:50:22.860Z,96992.64
2022-11-22T06:52:52.678Z,96997.65
2022-11-22T06:55:48.454Z,97002.13
2022-11-22T06:58:09.247Z,97004.72
2022-11-22T07:00:37.384Z,97007.14
2022-11-22T07:03:05.756Z,97006.10
2022-11-22T07:05:34.267Z,97004.36
2022-11-22T07:08:07.980Z,97008.00
2022-11-22T07:10:40.643Z,97012.50
2022-11-22T07:13:09.603Z,97016.64
2022-11-22T07:15:37.971Z,97014.22
2022-11-22T07:18:06.353Z,97012.16
2022-11-22T07:20:34.754Z,97012.16
2022-11-22T07:23:03.001Z,97010.25
2022-11-22T07:25:31.887Z,97013.71
2022-11-22T07:28:00.302Z,97019.21
2022-11-22T07:30:28.784Z,97019.56
2022-11-22T07:32:57.645Z,97010.59
2022-11-22T07:35:26.114Z,97007.47
2022-11-22T07:37:54.428Z,97006.60
2022-11-22T07:40:22.907Z,97006.95
2022-11-22T07:42:56.990Z,97004.19
2022-11-22T07:45:26.976Z,97004.88
2022-11-22T07:47:55.562Z,97006.25
2022-11-22T07:50:23.832Z,97009.35
2022-11-22T07:52:59.145Z,97011.92
2022-11-22T07:55:28.086Z,97010.88
2022-11-22T07:58:00.443Z,97012.59
2022-11-22T08:00:29.525Z,97014.81
2022-11-22T08:02:59.557Z,97014.27
2022-11-22T08:05:28.175Z,97014.42
2022-11-22T08:07:56.513Z,97014.41
2022-11-22T08:10:24.917Z,97015.77
2022-11-22T08:12:53.797Z,97017.98
2022-11-22T08:15:22.055Z,97020.73
2022-11-22T08:17:50.334Z,97017.77
2022-11-22T08:20:18.827Z,97014.96
2022-11-22T08:22:47.647Z,97013.87
2022-11-22T08:25:15.857Z,97013.31
2022-11-22T08:27:44.249Z,97009.98
2022-11-22T08:30:13.074Z,97013.19
2022-11-22T08:32:41.442Z,97014.69
2022-11-22T08:35:09.746Z,97018.95
2022-11-22T08:37:38.064Z,97028.27
2022-11-22T08:40:07.042Z,97026.50
2022-11-22T08:42:35.542Z,97017.63
2022-11-22T08:45:05.643Z,97015.85
2022-11-22T08:47:33.883Z,97011.98
2022-11-22T08:50:01.990Z,97009.69
2022-11-22T08:52:30.332Z,97007.55
2022-11-22T08:54:58.619Z,97006.08
2022-11-22T08:57:26.905Z,97012.05
2022-11-22T08:59:55.019Z,97014.16
2022-11-22T09:02:23.277Z,97018.59
2022-11-22T09:04:54.343Z,97019.96
2022-11-22T09:10:11.661Z,97008.46
2022-11-22T09:12:44.726Z,97005.80
2022-11-22T09:15:14.213Z,97003.30
2022-11-22T09:17:43.797Z,96998.91
2022-11-22T09:20:13.015Z,96994.52
2022-11-22T09:22:52.064Z,96994.77
2022-11-22T09:25:24.370Z,96991.25
2022-11-22T09:27:53.304Z,96986.48
2022-11-22T09:30:21.817Z,96981.09
2022-11-22T09:32:50.445Z,96978.58
2022-11-22T09:35:20.686Z,96967.45
2022-11-22T09:37:49.597Z,96966.24
2022-11-22T09:40:18.439Z,96956.92
2022-11-22T09:43:04.773Z,96947.77
2022-11-22T09:45:47.257Z,96940.55
2022-11-22T09:48:18.762Z,96935.27
2022-11-22T09:51:02.760Z,96924.80
2022-11-22T09:53:45.794Z,96919.03
2022-11-22T09:56:18.719Z,96915.04
2022-11-22T09:59:04.566Z,96911.39
2022-11-22T10:01:45.030Z,96904.63
2022-11-22T10:04:29.010Z,96901.02
2022-11-22T10:07:15.978Z,96896.45
2022-11-22T10:10:02.970Z,96886.92
2022-11-22T10:12:46.275Z,96893.27
2022-11-22T10:15:51.807Z,96898.71
2022-11-22T10:18:38.526Z,96899.59
2022-11-22T10:21:13.022Z,96899.10
2022-11-22T10:23:44.320Z,96902.33
2022-11-22T10:26:26.456Z,96901.03
2022-11-22T10:29:10.548Z,96891.17
2022-11-22T10:31:43.659Z,96885.50
2022-11-22T10:34:17.276Z,96878.50
2022-11-22T10:36:57.983Z,96864.90
2022-11-22T10:39:40.849Z,96863.53
2022-11-22T10:42:20.194Z,96852.69
2022-11-22T10:44:55.934Z,96846.52
2022-11-22T10:47:42.764Z,96850.33
2022-11-22T10:50:28.250Z,96846.34
2022-11-22T10:53:27.424Z,96841.20
2022-11-22T10:56:06.577Z,96841.61
2022-11-22T10:59:01.895Z,96834.23
2022-11-22T11:01:36.677Z,96829.91
2022-11-22T11:04:07.554Z,96815.63
2022-11-22T11:07:10.902Z,96809.80
2022-11-22T11:12:55.300Z,96813.80
2022-11-22T11:15:35.906Z,96809.65
2022-11-22T11:18:09.008Z,96808.41
2022-11-22T11:20:42.704Z,96810.38
2022-11-22T11:23:15.920Z,96813.60
2022-11-22T11:25:48.015Z,96809.74
2022-11-22T11:28:26.307Z,96812.20
2022-11-22T11:30:58.865Z,96815.45
2022-11-22T11:33:33.012Z,96814.17
2022-11-22T11:36:16.165Z,96813.84
2022-11-22T11:38:44.561Z,96808.74
2022-11-22T11:42:03.558Z,96809.68
2022-11-22T11:44:37.380Z,96809.36
2022-11-22T11:47:06.012Z,96805.56
2022-11-22T11:49:38.401Z,96803.02
2022-11-22T11:52:34.400Z,96804.73
2022-11-22T11:55:03.243Z,96802.59
2022-11-22T11:57:35.886Z,96803.34
2022-11-22T12:00:20.261Z,96803.11
2022-11-22T12:02:51.000Z,96801.48
2022-11-22T12:05:19.726Z,96799.98
2022-11-22T12:07:49.758Z,96797.67
2022-11-22T12:10:45.847Z,96794.72
2022-11-22T12:13:57.789Z,96792.19
2022-11-22T12:16:28.905Z,96786.90
2022-11-22T12:19:06.994Z,96790.04
2022-11-22T12:22:01.502Z,96786.51
2022-11-22T12:25:30.467Z,96781.17
2022-11-22T12:27:46.918Z,96787.95
2022-11-22T12:30:24.045Z,96790.00
2022-11-22T12:33:04.935Z,96789.77
2022-11-22T12:35:44.253Z,96787.70
2022-11-22T12:38:21.717Z,96780.89
2022-11-22T12:40:55.151Z,96777.91
2022-11-22T12:43:33.519Z,96775.80
2022-11-22T12:46:26.004Z,96779.02
2022-11-22T12:49:11.493Z,96774.90
2022-11-22T12:51:50.916Z,96771.78
2022-11-22T12:54:32.701Z,96771.27
2022-11-22T12:57:10.646Z,96770.88
2022-11-22T12:59:59.446Z,96773.52
2022-11-22T13:02:41.146Z,96769.58
2022-11-22T13:05:18.017Z,96776.33
2022-11-22T13:08:06.690Z,96777.61
2022-11-22T13:10:40.206Z,96763.94
2022-11-22T13:13:21.819Z,96761.94
2022-11-22T13:15:53.296Z,96764.37
2022-11-22T13:18:26.565Z,96765.11
2022-11-22T13:21:08.681Z,96771.07
2022-11-22T13:23:50.310Z,96769.98
2022-11-22T13:26:47.602Z,96761.16
2022-11-22T13:29:30.532Z,96758.63
2022-11-22T13:32:20.259Z,96752.45
2022-11-22T13:35:08.128Z,96750.92
2022-11-22T13:37:43.744Z,96744.41
2022-11-22T13:40:24.312Z,96734.88
2022-11-22T13:43:15.598Z,96737.80
2022-11-22T13:45:51.675Z,96739.55
2022-11-22T13:48:44.498Z,96735.75
2022-11-22T13:51:15.046Z,96743.21
2022-11-22T13:53:45.495Z,96741.66
2022-11-22T13:56:16.802Z,96743.89
2022-11-22T13:58:51.283Z,96749.42
2022-11-22T14:01:35.554Z,96750.43
2022-11-22T14:04:15.984Z,96753.35
2022-11-22T14:07:09.747Z,96757.02
2022-11-22T14:09:54.933Z,96755.69
2022-11-22T14:12:58.749Z,96753.87
2022-11-22T14:15:49.200Z,96751.35
2022-11-22T14:18:49.112Z,96743.31
2022-11-22T14:21:39.097Z,96740.66
2022-11-22T14:24:22.382Z,96741.98
2022-11-22T14:27:08.382Z,96740.84
2022-11-22T14:29:39.376Z,96740.73
2022-11-22T14:32:21.910Z,96745.30
2022-11-22T14:35:05.808Z,96738.05
2022-11-22T14:37:55.790Z,96734.80
2022-11-22T14:40:36.990Z,96743.57
2022-11-22T14:43:26.318Z,96746.12
2022-11-22T14:46:30.399Z,96744.89
2022-11-22T14:49:09.497Z,96735.35
2022-11-22T14:51:45.043Z,96738.41
2022-11-22T14:54:31.014Z,96731.95
2022-11-22T14:57:05.367Z,96724.54
2022-11-22T15:00:18.992Z,96721.07
2022-11-22T15:03:06.450Z,96729.91
2022-11-22T15:09:13.964Z,96729.91
2022-11-22T15:09:46.436Z,96729.89
2022-11-22T15:12:23.293Z,96733.81
2022-11-22T15:58:12.938Z,96726.52
2022-11-22T16:00:43.976Z,96727.64
2022-11-22T16:03:23.393Z,96726.02
2022-11-22T16:06:09.245Z,96722.67
2022-11-22T16:08:58.201Z,96725.90
2022-11-22T16:11:36.277Z,96721.83
2022-11-22T16:14:24.766Z,96710.96
2022-11-22T16:16:54.613Z,96710.34
2022-11-22T16:19:24.640Z,96712.52
2022-11-22T16:22:01.045Z,96716.20
2022-11-22T16:24:31.715Z,96717.66
2022-11-22T16:27:06.012Z,96715.60
2022-11-22T16:29:37.368Z,96713.90
2022-11-22T16:32:11.621Z,96715.66
2022-11-22T16:34:44.279Z,96710.98
2022-11-22T16:37:34.650Z,96711.52
2022-11-22T16:40:07.245Z,96711.17
2022-11-22T16:42:38.396Z,96715.88
2022-11-22T16:45:15.021Z,96715.54
2022-11-22T16:47:44.812Z,96714.90
2022-11-22T16:50:17.589Z,96714.44
2022-11-22T16:52:46.105Z,96715.02
2022-11-22T16:55:19.317Z,96714.21
2022-11-22T16:57:47.559Z,96717.38
2022-11-22T17:00:16.609Z,96712.60
2022-11-22T17:02:45.236Z,96711.27
2022-11-22T17:05:17.821Z,96713.70
2022-11-22T17:07:46.101Z,96713.56
2022-11-22T17:10:16.239Z,96717.91
2022-11-22T17:12:45.731Z,96716.00
2022-11-22T17:15:18.028Z,96712.03
2022-11-22T17:17:46.050Z,96711.67
2022-11-22T17:20:14.471Z,96711.82
2022-11-22T17:22:43.664Z,96703.17
2022-11-22T17:25:13.753Z,96699.55
2022-11-22T17:27:42.645Z,96699.86
2022-11-22T17:30:11.654Z,96702.59
2022-11-22T17:32:40.544Z,96701.02
2022-11-22T17:35:10.566Z,96705.48
2022-11-22T17:37:38.472Z,96708.79
2022-11-22T17:40:07.490Z,96702.42
2022-11-22T17:42:40.788Z,96696.91
2022-11-22T17:45:10.095Z,96696.09
2022-11-22T17:47:38.382Z,96695.08
2022-11-22T17:50:06.753Z,96693.69
2022-11-22T17:52:34.844Z,96689.38
2022-11-22T17:55:06.245Z,96690.91
2022-11-22T17:57:36.377Z,96692.95
2022-11-22T18:00:07.098Z,96692.05
2022-11-22T18:02:36.138Z,96690.14
2022-11-22T18:05:08.516Z,96683.71
2022-11-22T18:07:40.810Z,96683.16
2022-11-22T18:10:10.294Z,96682.29
2022-11-22T18:12:42.393Z,96674.87
2022-11-22T18:15:15.292Z,96672.95
2022-11-22T18:17:43.682Z,96667.10
2022-11-22T18:20:12.311Z,96660.40
2022-11-22T18:22:40.337Z,96657.70
2022-11-22T18:25:08.953Z,96653.41
2022-11-22T18:27:41.902Z,96648.96
2022-11-22T18:30:11.394Z,96644.17
2022-11-22T18:32:39.680Z,96646.98
2022-11-22T18:35:08.004Z,96650.47
2022-11-22T18:37:35.999Z,96650.34
2022-11-22T18:40:04.391Z,96652.64
2022-11-22T18:42:32.569Z,96653.05
2022-11-22T18:45:00.783Z,96652.06
2022-11-22T18:47:28.771Z,96646.08
2022-11-22T18:49:57.163Z,96643.16
2022-11-22T18:52:26.845Z,96644.91
2022-11-22T18:54:56.420Z,96643.37
2022-11-22T18:57:24.467Z,96635.45
2022-11-22T18:59:53.119Z,96628.04
2022-11-22T19:02:25.871Z,96625.80
2022-11-22T19:04:54.613Z,96621.17
2022-11-22T19:07:23.249Z,96617.55
2022-11-22T19:09:51.516Z,96616.36
2022-11-22T19:12:19.724Z,96615.36
2022-11-22T19:14:47.800Z,96615.71
2022-11-22T19:17:21.443Z,96613.84
2022-11-22T19:19:57.293Z,96604.57
2022-11-22T19:22:26.804Z,96602.02
2022-11-22T19:24:54.736Z,96598.44
2022-11-22T19:27:22.823Z,96598.30
2022-11-22T19:29:50.940Z,96597.30
2022-11-22T19:32:19.029Z,96598.35
2022-11-22T19:34:46.992Z,96608.73
2022-11-22T19:37:15.135Z,96612.54
2022-11-22T19:39:43.294Z,96610.00
2022-11-22T19:42:11.428Z,96608.82
2022-11-22T19:44:39.442Z,96609.86
2022-11-22T19:47:07.442Z,96616.23
2022-11-22T19:49:35.541Z,96614.86
2022-11-22T19:52:03.620Z,96615.37
2022-11-22T19:54:31.649Z,96612.79
2022-11-22T19:56:59.806Z,96609.17
2022-11-22T19:59:30.078Z,96608.15
2022-11-22T20:01:58.403Z,96604.37
2022-11-22T20:04:26.523Z,96603.16
2022-11-22T20:06:55.373Z,96596.61
2022-11-22T20:09:24.195Z,96593.17
2022-11-22T20:11:52.510Z,96593.54
2022-11-22T20:14:23.619Z,96592.50
2022-11-22T20:16:51.892Z,96584.91
2022-11-22T20:19:19.933Z,96582.85
2022-11-22T20:21:49.645Z,96576.14
2022-11-22T20:24:17.971Z,96579.42
2022-11-22T20:26:45.905Z,96582.20
2022-11-22T20:29:14.396Z,96586.69
2022-11-22T20:31:43.125Z,96579.30
2022-11-22T20:34:11.322Z,96581.89
2022-11-22T20:36:39.426Z,96582.26
2022-11-22T20:39:11.024Z,96581.06
2022-11-22T20:41:40.737Z,96573.50
2022-11-22T20:44:14.245Z,96570.42
2022-11-22T20:46:42.629Z,96569.73
2022-11-22T20:49:10.859Z,96569.76
2022-11-22T20:51:40.091Z,96565.80
2022-11-22T20:54:11.592Z,96566.16
2022-11-22T20:56:39.576Z,96564.61
2022-11-22T20:59:07.639Z,96553.08
2022-11-22T21:01:35.963Z,96543.79
2022-11-22T21:04:04.198Z,96539.98
2022-11-22T21:06:33.875Z,96538.60
2022-11-22T21:09:02.000Z,96537.73
2022-11-22T21:11:31.596Z,96538.76
2022-11-22T21:14:00.040Z,96544.95
2022-11-22T21:16:29.651Z,96542.02
2022-11-22T21:19:04.960Z,96536.15
2022-11-22T21:21:35.933Z,96542.17
2022-11-22T21:24:06.004Z,96545.27
2022-11-22T21:26:34.679Z,96544.25
2022-11-22T21:29:05.077Z,96542.19
2022-11-22T21:31:33.393Z,96540.65
2022-11-22T21:34:01.476Z,96536.36
2022-11-22T21:36:29.764Z,96530.34
2022-11-22T21:38:58.665Z,96522.77
2022-11-22T21:41:42.295Z,96516.56
2022-11-22T21:44:11.088Z,96510.17
2022-11-22T21:46:39.771Z,96509.30
2022-11-22T21:49:08.145Z,96503.24
2022-11-22T21:51:36.363Z,96496.66
2022-11-22T21:54:05.208Z,96492.49
2022-11-22T21:56:33.794Z,96492.14
2022-11-22T21:59:01.938Z,96489.02
2022-11-22T22:01:30.272Z,96494.49
2022-11-22T22:03:58.394Z,96504.09
2022-11-22T22:06:26.437Z,96499.59
2022-11-22T22:08:55.042Z,96498.34
2022-11-22T22:11:23.341Z,96497.42
2022-11-22T22:13:55.847Z,96489.48
2022-11-22T22:16:25.979Z,96488.09
2022-11-22T22:18:54.676Z,96491.00
2022-11-22T22:21:22.801Z,96484.62
2022-11-22T22:23:51.091Z,96484.42
2022-11-22T22:26:19.311Z,96487.00
2022-11-22T22:28:47.596Z,96487.49
2022-11-22T22:31:22.393Z,96483.00
2022-11-22T22:33:55.721Z,96472.48
2022-11-22T22:36:26.078Z,96460.58
2022-11-22T22:38:55.242Z,96453.14
2022-11-22T22:41:23.362Z,96450.52
2022-11-22T22:43:51.789Z,96444.62
2022-11-22T22:46:22.663Z,96445.96
2022-11-22T22:48:52.294Z,96445.60
2022-11-22T22:51:32.005Z,96445.38
2022-11-22T22:54:01.936Z,96447.42
2022-11-22T22:56:31.907Z,96436.20
2022-11-22T22:59:01.345Z,96428.77
2022-11-22T23:01:31.801Z,96428.59
2022-11-22T23:04:01.472Z,96424.79
2022-11-22T23:06:32.254Z,96427.54
2022-11-22T23:09:01.442Z,96434.25
2022-11-22T23:11:50.287Z,96443.55
2022-11-22T23:14:21.582Z,96441.80
2022-11-22T23:16:55.957Z,96434.36
2022-11-22T23:19:27.387Z,96439.19
2022-11-22T23:21:56.072Z,96439.00
2022-11-22T23:24:24.175Z,96434.99
2022-11-22T23:26:52.328Z,96435.30
2022-11-22T23:29:20.422Z,96434.58
2022-11-22T23:31:48.337Z,96440.23
2022-11-22T23:34:16.573Z,96444.17
2022-11-22T23:36:44.641Z,96443.11
2022-11-22T23:39:12.587Z,96440.84
2022-11-22T23:41:40.616Z,96440.45
2022-11-22T23:44:09.218Z,96435.25
2022-11-22T23:46:37.236Z,96434.02
2022-11-22T23:49:05.704Z,96430.16
2022-11-22T23:51:35.352Z,96433.57
2022-11-22T23:54:05.707Z,96433.35
2022-11-22T23:56:35.064Z,96429.69
2022-11-22T23:59:05.735Z,96426.89
